Juan Manuel Galvez International Airport
MHRO : rendu visible

Aérodrome :











RETROUVEZ-NOUS SUR...

 
LOGIN :

S'inscrire | Disclaimer

   EN    FR    IT 

 









Légende :    VFR   VFR Marginal   IFR   IFR Intensif   IFR Très Intensif
Visi : 
Plafond : 
>= 8 km
>= 3000ft
5 à 8 km
1000 à 3000 ft
1500m à 5 km
500 à 1000 ft
800 à 1500m
200 à 500 ft
< 800m
< 200 ft
Symboles :   Orages  Brouillard  Fortes neiges  Fortes précipitations  Vent > 20 kt






- Altitude de l'aérodrome : 18 ft
- Code IATA : RTB


MHRO - Juan Manuel Galvez International

DERNIER METAR :
  • 062000Z 11008KT 9999 SCT022 29/23 Q1016 A3000 NOSIG

METARs EXPIRÉS :
  • 061900Z 10008KT 9999 SCT022 30/23 Q1017 A3003 NOSIG
  • 061800Z 12008KT 9999 SCT022 30/22 Q1018 A3006 NOSIG

TAF TAF MHRO
Valide du 06 à 18h jusqu'au 07 à 18h UTC


061630Z 0618/0718 09014KT 9999 SCT022 TX30/0619Z TN23/0712Z
BECMG 0710/0712 03012KT FEW020TCU SCT080



MET'MAP, la Météo Aéronautique d'un coup d'oeil ! - Copyright ORBIFLY Décembre 2007 - Disclaimer

ORBIFLY MET'MAP TEAM :

Programmation & Développement : Alexandra Zaïnal
Sur une idée originale de : Baudouin d'Aumeries
Assistance à la programmation : Marc-Olivier Méhu
Soutien technique & logistique : Manuel Goepfert

Contact : metmap@orbifly.com




SOURCES & CREDITS :

   NOAA       Earth
Advisory